sensor_id;sensor_type;location;lat;lon;timestamp;pressure;altitude;pressure_sealevel;temperature;humidity
15487;BME280;7845;53.698;10.078;2024-01-11T00:00:26;103008.56;;;0.40;83.53
15487;BME280;7845;53.698;10.078;2024-01-11T00:02:52;103002.53;;;0.43;83.55
15487;BME280;7845;53.698;10.078;2024-01-11T00:05:18;103004.25;;;0.41;83.42
15487;BME280;7845;53.698;10.078;2024-01-11T00:07:44;103002.50;;;0.37;83.63
15487;BME280;7845;53.698;10.078;2024-01-11T00:10:09;102995.63;;;0.34;83.38
15487;BME280;7845;53.698;10.078;2024-01-11T00:12:36;102987.88;;;0.37;83.44
15487;BME280;7845;53.698;10.078;2024-01-11T00:15:01;102985.34;;;0.46;83.49
15487;BME280;7845;53.698;10.078;2024-01-11T00:17:26;102987.13;;;0.55;83.45
15487;BME280;7845;53.698;10.078;2024-01-11T00:19:52;102987.97;;;0.57;82.94
15487;BME280;7845;53.698;10.078;2024-01-11T00:22:17;103000.91;;;0.59;82.63
15487;BME280;7845;53.698;10.078;2024-01-11T00:24:43;102993.09;;;0.48;82.41
15487;BME280;7845;53.698;10.078;2024-01-11T00:27:08;102987.88;;;0.37;83.44
15487;BME280;7845;53.698;10.078;2024-01-11T00:29:35;102980.13;;;0.37;83.08
15487;BME280;7845;53.698;10.078;2024-01-11T00:32:00;102981.84;;;0.37;83.79
15487;BME280;7845;53.698;10.078;2024-01-11T00:34:26;102986.16;;;0.39;83.76
15487;BME280;7845;53.698;10.078;2024-01-11T00:36:51;102976.66;;;0.37;83.57
15487;BME280;7845;53.698;10.078;2024-01-11T00:39:17;102967.13;;;0.25;83.32
15487;BME280;7845;53.698;10.078;2024-01-11T00:41:43;102969.72;;;0.27;83.83
15487;BME280;7845;53.698;10.078;2024-01-11T00:44:08;102936.94;;;0.15;83.31
15487;BME280;7845;53.698;10.078;2024-01-11T00:46:35;102954.25;;;0.33;83.74
15487;BME280;7845;53.698;10.078;2024-01-11T00:49:00;102949.06;;;0.30;83.32
15487;BME280;7845;53.698;10.078;2024-01-11T00:51:26;102938.72;;;0.28;83.28
15487;BME280;7845;53.698;10.078;2024-01-11T00:53:51;102943.91;;;0.27;83.22
15487;BME280;7845;53.698;10.078;2024-01-11T00:56:17;102940.44;;;0.23;83.49
15487;BME280;7845;53.698;10.078;2024-01-11T00:58:43;102919.75;;;0.23;83.93
15487;BME280;7845;53.698;10.078;2024-01-11T01:01:09;102842.91;;;-0.25;83.42
15487;BME280;7845;53.698;10.078;2024-01-11T01:03:34;102922.41;;;0.34;83.41
15487;BME280;7845;53.698;10.078;2024-01-11T01:06:00;102917.19;;;0.26;83.74
15487;BME280;7845;53.698;10.078;2024-01-11T01:08:26;102922.31;;;0.22;83.82
15487;BME280;7845;53.698;10.078;2024-01-11T01:10:52;102919.75;;;0.23;83.27
15487;BME280;7845;53.698;10.078;2024-01-11T01:13:17;102922.34;;;0.25;83.74
15487;BME280;7845;53.698;10.078;2024-01-11T01:15:43;102816.13;;;-0.37;83.65
15487;BME280;7845;53.698;10.078;2024-01-11T01:18:08;102923.16;;;0.16;83.56
15487;BME280;7845;53.698;10.078;2024-01-11T01:20:34;102934.28;;;0.08;84.22
15487;BME280;7845;53.698;10.078;2024-01-11T01:23:01;102943.81;;;0.13;84.35
15487;BME280;7845;53.698;10.078;2024-01-11T01:25:31;102922.25;;;0.11;84.07
15487;BME280;7845;53.698;10.078;2024-01-11T01:27:59;102909.38;;;0.14;84.23
15487;BME280;7845;53.698;10.078;2024-01-11T01:30:26;102909.34;;;0.08;84.40
15487;BME280;7845;53.698;10.078;2024-01-11T01:32:52;102907.69;;;0.16;83.96
15487;BME280;7845;53.698;10.078;2024-01-11T01:35:18;102918.03;;;0.22;83.86
15487;BME280;7845;53.698;10.078;2024-01-11T01:37:47;102918.91;;;0.23;83.75
15487;BME280;7845;53.698;10.078;2024-01-11T01:40:13;102924.78;;;0.04;83.87
15487;BME280;7845;53.698;10.078;2024-01-11T01:42:45;102929.97;;;0.05;84.41
15487;BME280;7845;53.698;10.078;2024-01-11T01:45:11;102927.44;;;0.10;83.80
15487;BME280;7845;53.698;10.078;2024-01-11T01:47:43;102929.94;;;-0.01;84.21
15487;BME280;7845;53.698;10.078;2024-01-11T01:50:12;102949.78;;;0.08;84.45
15487;BME280;7845;53.698;10.078;2024-01-11T01:52:40;102947.16;;;-0.02;84.48
15487;BME280;7845;53.698;10.078;2024-01-11T01:55:09;102950.59;;;-0.03;84.88
15487;BME280;7845;53.698;10.078;2024-01-11T01:57:36;102960.03;;;-0.08;84.66
15487;BME280;7845;53.698;10.078;2024-01-11T02:00:02;102952.28;;;-0.06;84.54
15487;BME280;7845;53.698;10.078;2024-01-11T02:02:30;102949.75;;;0.00;84.77
15487;BME280;7845;53.698;10.078;2024-01-11T02:04:56;102969.56;;;0.03;84.56
15487;BME280;7845;53.698;10.078;2024-01-11T02:07:22;102953.22;;;0.05;84.71
15487;BME280;7845;53.698;10.078;2024-01-11T02:09:48;102949.78;;;0.05;84.59
15487;BME280;7845;53.698;10.078;2024-01-11T02:12:14;102940.38;;;0.13;84.36
15487;BME280;7845;53.698;10.078;2024-01-11T02:14:40;102943.78;;;0.09;84.51
15487;BME280;7845;53.698;10.078;2024-01-11T02:17:06;102954.00;;;-0.07;84.29
15487;BME280;7845;53.698;10.078;2024-01-11T02:19:31;102960.03;;;-0.08;84.84
15487;BME280;7845;53.698;10.078;2024-01-11T02:22:02;102978.91;;;-0.13;85.35
15487;BME280;7845;53.698;10.078;2024-01-11T02:24:30;102997.69;;;-0.28;85.89
15487;BME280;7845;53.698;10.078;2024-01-11T02:27:03;102998.47;;;-0.38;86.06
15487;BME280;7845;53.698;10.078;2024-01-11T02:29:30;102970.19;;;-0.27;86.06
15487;BME280;7845;53.698;10.078;2024-01-11T02:31:56;102970.28;;;-0.18;86.24
15487;BME280;7845;53.698;10.078;2024-01-11T02:34:23;102978.06;;;-0.12;85.69
15487;BME280;7845;53.698;10.078;2024-01-11T02:36:50;102985.81;;;-0.11;85.99
15487;BME280;7845;53.698;10.078;2024-01-11T02:39:16;102984.16;;;-0.03;85.71
15487;BME280;7845;53.698;10.078;2024-01-11T02:41:43;102978.91;;;-0.10;85.13
15487;BME280;7845;53.698;10.078;2024-01-11T02:44:09;102983.19;;;-0.15;85.73
15487;BME280;7845;53.698;10.078;2024-01-11T02:46:34;102921.03;;;-0.41;85.46
15487;BME280;7845;53.698;10.078;2024-01-11T02:49:00;102975.47;;;-0.15;85.34
15487;BME280;7845;53.698;10.078;2024-01-11T02:51:25;102966.81;;;-0.17;85.76
15487;BME280;7845;53.698;10.078;2024-01-11T02:53:50;102965.97;;;-0.16;85.65
15487;BME280;7845;53.698;10.078;2024-01-11T02:56:16;102950.50;;;-0.15;85.13
15487;BME280;7845;53.698;10.078;2024-01-11T02:58:41;102956.59;;;-0.08;85.04
15487;BME280;7845;53.698;10.078;2024-01-11T03:01:07;102950.50;;;-0.15;85.44
15487;BME280;7845;53.698;10.078;2024-01-11T03:03:32;102976.31;;;-0.15;85.29
15487;BME280;7845;53.698;10.078;2024-01-11T03:05:57;102974.56;;;-0.19;85.17
15487;BME280;7845;53.698;10.078;2024-01-11T03:08:23;102901.03;;;-0.66;85.90
15487;BME280;7845;53.698;10.078;2024-01-11T03:10:48;102956.38;;;-0.32;85.91
15487;BME280;7845;53.698;10.078;2024-01-11T03:13:13;102966.72;;;-0.32;86.20
15487;BME280;7845;53.698;10.078;2024-01-11T03:15:39;102955.53;;;-0.33;86.03
15487;BME280;7845;53.698;10.078;2024-01-11T03:18:05;102949.47;;;-0.35;86.44
15487;BME280;7845;53.698;10.078;2024-01-11T03:20:30;102964.94;;;-0.35;86.50
15487;BME280;7845;53.698;10.078;2024-01-11T03:22:56;102964.81;;;-0.48;86.42
15487;BME280;7845;53.698;10.078;2024-01-11T03:25:21;102963.97;;;-0.51;86.73
15487;BME280;7845;53.698;10.078;2024-01-11T03:27:47;102958.84;;;-0.44;86.58
15487;BME280;7845;53.698;10.078;2024-01-11T03:30:12;102961.44;;;-0.46;87.00
15487;BME280;7845;53.698;10.078;2024-01-11T03:32:38;102973.47;;;-0.42;86.48
15487;BME280;7845;53.698;10.078;2024-01-11T03:35:07;102917.22;;;-0.82;86.34
15487;BME280;7845;53.698;10.078;2024-01-11T03:37:32;102995.00;;;-0.43;86.96
15487;BME280;7845;53.698;10.078;2024-01-11T03:39:57;103001.06;;;-0.39;86.61
15487;BME280;7845;53.698;10.078;2024-01-11T03:42:23;103001.75;;;-0.56;86.64
15487;BME280;7845;53.698;10.078;2024-01-11T03:44:49;102981.22;;;-0.43;86.99
15487;BME280;7845;53.698;10.078;2024-01-11T03:47:14;102973.53;;;-0.39;86.65
15487;BME280;7845;53.698;10.078;2024-01-11T03:49:39;102977.91;;;-0.30;86.77
15487;BME280;7845;53.698;10.078;2024-01-11T03:52:05;102903.66;;;-0.65;86.17
15487;BME280;7845;53.698;10.078;2024-01-11T03:54:31;102953.84;;;-0.29;86.02
15487;BME280;7845;53.698;10.078;2024-01-11T03:56:57;102952.09;;;-0.32;86.02
15487;BME280;7845;53.698;10.078;2024-01-11T03:59:22;102941.78;;;-0.30;85.89
15487;BME280;7845;53.698;10.078;2024-01-11T04:01:47;102936.56;;;-0.36;85.95
15487;BME280;7845;53.698;10.078;2024-01-11T04:04:12;102924.50;;;-0.39;85.86
15487;BME280;7845;53.698;10.078;2024-01-11T04:06:38;102907.28;;;-0.41;85.83
15487;BME280;7845;53.698;10.078;2024-01-11T04:09:03;102918.56;;;-0.27;85.90
15487;BME280;7845;53.698;10.078;2024-01-11T04:11:29;102931.44;;;-0.30;85.57
15487;BME280;7845;53.698;10.078;2024-01-11T04:13:55;102922.84;;;-0.28;85.87
15487;BME280;7845;53.698;10.078;2024-01-11T04:16:20;102898.81;;;-0.25;85.45
15487;BME280;7845;53.698;10.078;2024-01-11T04:18:46;102907.41;;;-0.25;85.31
15487;BME280;7845;53.698;10.078;2024-01-11T04:21:28;102900.56;;;-0.21;85.75
15487;BME280;7845;53.698;10.078;2024-01-11T04:23:54;102893.66;;;-0.21;84.85
15487;BME280;7845;53.698;10.078;2024-01-11T04:26:20;102878.25;;;-0.12;85.42
15487;BME280;7845;53.698;10.078;2024-01-11T04:28:46;102879.13;;;-0.08;84.97
15487;BME280;7845;53.698;10.078;2024-01-11T04:31:12;102898.06;;;-0.08;84.48
15487;BME280;7845;53.698;10.078;2024-01-11T04:33:41;102898.88;;;-0.15;84.96
15487;BME280;7845;53.698;10.078;2024-01-11T04:36:08;102901.47;;;-0.15;84.75
15487;BME280;7845;53.698;10.078;2024-01-11T04:38:33;102899.63;;;-0.29;85.00
15487;BME280;7845;53.698;10.078;2024-01-11T04:40:58;102882.44;;;-0.26;85.23
15487;BME280;7845;53.698;10.078;2024-01-11T04:43:24;102772.78;;;-0.88;85.11
15487;BME280;7845;53.698;10.078;2024-01-11T04:45:49;102888.50;;;-0.21;84.69
15487;BME280;7845;53.698;10.078;2024-01-11T04:48:14;102886.81;;;-0.19;85.25
15487;BME280;7845;53.698;10.078;2024-01-11T04:50:40;102910.94;;;-0.12;85.19
15487;BME280;7845;53.698;10.078;2024-01-11T04:53:06;102923.69;;;-0.30;85.21
15487;BME280;7845;53.698;10.078;2024-01-11T04:55:32;102923.63;;;-0.38;85.37
15487;BME280;7845;53.698;10.078;2024-01-11T04:57:57;102913.41;;;-0.29;85.28
15487;BME280;7845;53.698;10.078;2024-01-11T05:00:22;102903.78;;;-0.49;86.06
15487;BME280;7845;53.698;10.078;2024-01-11T05:02:48;102899.53;;;-0.43;86.13
15487;BME280;7845;53.698;10.078;2024-01-11T05:05:13;102883.25;;;-0.31;86.09
15487;BME280;7845;53.698;10.078;2024-01-11T05:07:38;102893.59;;;-0.33;85.76
15487;BME280;7845;53.698;10.078;2024-01-11T05:10:04;102884.13;;;-0.35;85.94
15487;BME280;7845;53.698;10.078;2024-01-11T05:12:29;102892.69;;;-0.35;86.41
15487;BME280;7845;53.698;10.078;2024-01-11T05:14:55;102906.41;;;-0.42;86.84
15487;BME280;7845;53.698;10.078;2024-01-11T05:17:20;102905.59;;;-0.36;86.71
15487;BME280;7845;53.698;10.078;2024-01-11T05:19:45;102913.28;;;-0.45;86.97
15487;BME280;7845;53.698;10.078;2024-01-11T05:22:10;102912.53;;;-0.32;86.77
15487;BME280;7845;53.698;10.078;2024-01-11T05:24:36;102919.44;;;-0.24;86.72
15487;BME280;7845;53.698;10.078;2024-01-11T05:27:01;102914.28;;;-0.28;86.56
15487;BME280;7845;53.698;10.078;2024-01-11T05:29:26;102908.22;;;-0.32;86.74
15487;BME280;7845;53.698;10.078;2024-01-11T05:31:51;102910.91;;;-0.18;86.43
15487;BME280;7845;53.698;10.078;2024-01-11T05:34:17;102910.09;;;-0.11;86.42
15487;BME280;7845;53.698;10.078;2024-01-11T05:36:42;102902.31;;;-0.13;86.27
15487;BME280;7845;53.698;10.078;2024-01-11T05:39:07;102897.09;;;-0.23;86.32
15487;BME280;7845;53.698;10.078;2024-01-11T05:41:33;102896.25;;;-0.19;86.79
15487;BME280;7845;53.698;10.078;2024-01-11T05:43:58;102889.44;;;-0.14;86.40
15487;BME280;7845;53.698;10.078;2024-01-11T05:46:23;102886.00;;;-0.09;86.58
15487;BME280;7845;53.698;10.078;2024-01-11T05:48:49;102874.78;;;-0.15;86.27
15487;BME280;7845;53.698;10.078;2024-01-11T05:51:14;102826.38;;;-0.48;86.23
15487;BME280;7845;53.698;10.078;2024-01-11T05:53:40;102880.72;;;-0.28;86.77
15487;BME280;7845;53.698;10.078;2024-01-11T05:56:08;102798.78;;;-0.61;86.55
15487;BME280;7845;53.698;10.078;2024-01-11T05:58:34;102870.47;;;-0.13;86.58
15487;BME280;7845;53.698;10.078;2024-01-11T06:01:01;102871.31;;;-0.22;86.55
15487;BME280;7845;53.698;10.078;2024-01-11T06:03:27;102871.28;;;-0.20;87.10
15487;BME280;7845;53.698;10.078;2024-01-11T06:05:53;102870.47;;;-0.16;86.65
15487;BME280;7845;53.698;10.078;2024-01-11T06:08:18;102814.25;;;-0.61;86.30
15487;BME280;7845;53.698;10.078;2024-01-11T06:10:43;102884.13;;;-0.28;86.95
15487;BME280;7845;53.698;10.078;2024-01-11T06:13:09;102889.38;;;-0.22;87.10
15487;BME280;7845;53.698;10.078;2024-01-11T06:15:34;102887.56;;;-0.30;87.58
15487;BME280;7845;53.698;10.078;2024-01-11T06:18:00;102876.41;;;-0.28;87.48
15487;BME280;7845;53.698;10.078;2024-01-11T06:20:25;102878.16;;;-0.21;87.17
15487;BME280;7845;53.698;10.078;2024-01-11T06:22:50;102883.38;;;-0.16;87.14
15487;BME280;7845;53.698;10.078;2024-01-11T06:25:16;102885.91;;;-0.24;87.45
15487;BME280;7845;53.698;10.078;2024-01-11T06:27:42;102890.22;;;-0.20;87.38
15487;BME280;7845;53.698;10.078;2024-01-11T06:30:08;102884.25;;;-0.13;87.39
15487;BME280;7845;53.698;10.078;2024-01-11T06:32:34;102898.06;;;-0.06;87.25
15487;BME280;7845;53.698;10.078;2024-01-11T06:34:59;102896.34;;;-0.07;86.92
15487;BME280;7845;53.698;10.078;2024-01-11T06:37:25;102896.38;;;0.00;87.06
15487;BME280;7845;53.698;10.078;2024-01-11T06:39:50;102889.50;;;0.04;87.19
15487;BME280;7845;53.698;10.078;2024-01-11T06:42:16;102892.94;;;0.02;86.60
15487;BME280;7845;53.698;10.078;2024-01-11T06:44:41;102902.50;;;0.15;86.86
15487;BME280;7845;53.698;10.078;2024-01-11T06:47:06;102848.97;;;-0.12;86.05
15487;BME280;7845;53.698;10.078;2024-01-11T06:49:31;102894.81;;;0.27;86.27
15487;BME280;7845;53.698;10.078;2024-01-11T06:51:57;102887.94;;;0.27;85.52
15487;BME280;7845;53.698;10.078;2024-01-11T06:54:22;102892.16;;;0.18;85.66
15487;BME280;7845;53.698;10.078;2024-01-11T06:56:47;102888.69;;;0.14;86.33
15487;BME280;7845;53.698;10.078;2024-01-11T06:59:13;102891.22;;;-0.04;86.66
15487;BME280;7845;53.698;10.078;2024-01-11T07:01:38;102907.63;;;0.09;86.94
15487;BME280;7845;53.698;10.078;2024-01-11T07:04:03;102900.72;;;0.03;87.36
15487;BME280;7845;53.698;10.078;2024-01-11T07:06:29;102902.47;;;0.12;87.32
15487;BME280;7845;53.698;10.078;2024-01-11T07:08:54;102919.72;;;0.19;87.19
15487;BME280;7845;53.698;10.078;2024-01-11T07:11:19;102913.69;;;0.18;87.31
15487;BME280;7845;53.698;10.078;2024-01-11T07:13:44;102918.03;;;0.21;86.83
15487;BME280;7845;53.698;10.078;2024-01-11T07:16:10;102908.59;;;0.24;86.45
15487;BME280;7845;53.698;10.078;2024-01-11T07:18:35;102901.72;;;0.29;86.45
15487;BME280;7845;53.698;10.078;2024-01-11T07:21:00;102836.09;;;-0.06;86.32
15487;BME280;7845;53.698;10.078;2024-01-11T07:23:28;102912.97;;;0.42;86.41
15487;BME280;7845;53.698;10.078;2024-01-11T07:25:54;102916.41;;;0.41;86.27
15487;BME280;7845;53.698;10.078;2024-01-11T07:28:19;102919.84;;;0.43;86.61
15487;BME280;7845;53.698;10.078;2024-01-11T07:30:50;102917.28;;;0.46;86.28
15487;BME280;7845;53.698;10.078;2024-01-11T07:33:15;102916.47;;;0.48;85.55
15487;BME280;7845;53.698;10.078;2024-01-11T07:35:40;102915.59;;;0.52;85.64
15487;BME280;7845;53.698;10.078;2024-01-11T07:38:06;102906.13;;;0.52;85.90
15487;BME280;7845;53.698;10.078;2024-01-11T07:40:31;102913.00;;;0.52;86.14
15487;BME280;7845;53.698;10.078;2024-01-11T07:42:56;102901.81;;;0.60;86.18
15487;BME280;7845;53.698;10.078;2024-01-11T07:45:22;102901.88;;;0.66;86.07
15487;BME280;7845;53.698;10.078;2024-01-11T07:47:47;102904.44;;;0.63;86.04
15487;BME280;7845;53.698;10.078;2024-01-11T07:50:13;102906.19;;;0.65;85.51
15487;BME280;7845;53.698;10.078;2024-01-11T07:52:39;102905.28;;;0.63;85.73
15487;BME280;7845;53.698;10.078;2024-01-11T07:55:09;102862.97;;;0.35;85.60
15487;BME280;7845;53.698;10.078;2024-01-11T07:57:36;102918.22;;;0.65;85.73
15487;BME280;7845;53.698;10.078;2024-01-11T08:00:03;102919.97;;;0.72;85.92
15487;BME280;7845;53.698;10.078;2024-01-11T08:02:29;102920.88;;;0.83;86.26
15487;BME280;7845;53.698;10.078;2024-01-11T08:04:54;102908.84;;;0.92;85.47
15487;BME280;7845;53.698;10.078;2024-01-11T08:07:19;102898.50;;;0.95;85.25
15487;BME280;7845;53.698;10.078;2024-01-11T08:09:45;102821.72;;;0.57;84.83
15487;BME280;7845;53.698;10.078;2024-01-11T08:12:19;102898.50;;;0.95;84.85
15487;BME280;7845;53.698;10.078;2024-01-11T08:14:44;102889.00;;;0.91;85.03
15487;BME280;7845;53.698;10.078;2024-01-11T08:17:11;102899.38;;;1.04;85.37
15487;BME280;7845;53.698;10.078;2024-01-11T08:19:38;102897.66;;;1.10;84.84
15487;BME280;7845;53.698;10.078;2024-01-11T08:22:04;102895.09;;;1.19;84.99
15487;BME280;7845;53.698;10.078;2024-01-11T08:24:30;102816.59;;;0.82;84.39
15487;BME280;7845;53.698;10.078;2024-01-11T08:26:55;102902.88;;;1.39;84.26
15487;BME280;7845;53.698;10.078;2024-01-11T08:29:21;102891.66;;;1.47;84.01
15487;BME280;7845;53.698;10.078;2024-01-11T08:31:47;102893.38;;;1.59;83.79
15487;BME280;7845;53.698;10.078;2024-01-11T08:34:13;102884.75;;;1.68;83.53
15487;BME280;7845;53.698;10.078;2024-01-11T08:36:38;102880.41;;;1.80;83.20
15487;BME280;7845;53.698;10.078;2024-01-11T08:39:04;102882.13;;;1.87;83.51
15487;BME280;7845;53.698;10.078;2024-01-11T08:41:34;102799.38;;;1.39;82.62
15487;BME280;7845;53.698;10.078;2024-01-11T08:44:01;102898.53;;;1.91;82.94
15487;BME280;7845;53.698;10.078;2024-01-11T08:46:27;102892.50;;;1.87;83.10
15487;BME280;7845;53.698;10.078;2024-01-11T08:48:54;102901.97;;;1.93;82.98
15487;BME280;7845;53.698;10.078;2024-01-11T08:51:21;102900.25;;;1.95;82.67
15487;BME280;7845;53.698;10.078;2024-01-11T08:53:46;102883.81;;;1.96;82.63
15487;BME280;7845;53.698;10.078;2024-01-11T08:56:11;102879.53;;;1.93;82.63
15487;BME280;7845;53.698;10.078;2024-01-11T08:58:37;102882.13;;;1.95;82.14
15487;BME280;7845;53.698;10.078;2024-01-11T09:01:03;102867.44;;;1.91;82.20
15487;BME280;7845;53.698;10.078;2024-01-11T09:03:29;102872.59;;;1.92;82.38
15487;BME280;7845;53.698;10.078;2024-01-11T09:05:54;102832.97;;;1.74;82.61
15487;BME280;7845;53.698;10.078;2024-01-11T09:08:22;102854.47;;;1.92;82.45
15487;BME280;7845;53.698;10.078;2024-01-11T09:10:47;102851.88;;;2.00;82.46
15487;BME280;7845;53.698;10.078;2024-01-11T09:13:13;102851.00;;;2.04;82.91
15487;BME280;7845;53.698;10.078;2024-01-11T09:15:38;102858.75;;;2.10;82.53
15487;BME280;7845;53.698;10.078;2024-01-11T09:18:03;102858.75;;;2.13;82.40
15487;BME280;7845;53.698;10.078;2024-01-11T09:20:29;102854.41;;;2.20;82.58
15487;BME280;7845;53.698;10.078;2024-01-11T09:22:54;102861.28;;;2.24;82.08
15487;BME280;7845;53.698;10.078;2024-01-11T09:25:20;102860.44;;;2.26;82.00
15487;BME280;7845;53.698;10.078;2024-01-11T09:27:45;102864.75;;;2.30;82.32
15487;BME280;7845;53.698;10.078;2024-01-11T09:30:10;102863.00;;;2.34;82.07
15487;BME280;7845;53.698;10.078;2024-01-11T09:32:36;102850.06;;;2.34;82.12
15487;BME280;7845;53.698;10.078;2024-01-11T09:35:03;102850.03;;;2.31;81.82
15487;BME280;7845;53.698;10.078;2024-01-11T09:37:30;102833.69;;;2.18;82.18
15487;BME280;7845;53.698;10.078;2024-01-11T09:39:56;102850.88;;;2.34;82.02
15487;BME280;7845;53.698;10.078;2024-01-11T09:42:21;102843.09;;;2.40;81.97
15487;BME280;7845;53.698;10.078;2024-01-11T09:44:46;102862.06;;;2.47;82.20
15487;BME280;7845;53.698;10.078;2024-01-11T09:47:15;102853.44;;;2.51;81.68
15487;BME280;7845;53.698;10.078;2024-01-11T09:49:44;102845.63;;;2.52;82.09
15487;BME280;7845;53.698;10.078;2024-01-11T09:52:11;102844.75;;;2.55;81.94
15487;BME280;7845;53.698;10.078;2024-01-11T09:54:37;102840.44;;;2.54;81.78
15487;BME280;7845;53.698;10.078;2024-01-11T09:57:06;102843.00;;;2.56;81.83
15487;BME280;7845;53.698;10.078;2024-01-11T09:59:32;102836.09;;;2.58;82.21
15487;BME280;7845;53.698;10.078;2024-01-11T10:01:59;102836.06;;;2.64;82.20
15487;BME280;7845;53.698;10.078;2024-01-11T10:04:26;102841.25;;;2.64;81.93
15487;BME280;7845;53.698;10.078;2024-01-11T10:06:53;102840.38;;;2.65;81.72
15487;BME280;7845;53.698;10.078;2024-01-11T10:09:19;102825.78;;;2.51;81.63
15487;BME280;7845;53.698;10.078;2024-01-11T10:11:45;102827.47;;;2.54;81.89
15487;BME280;7845;53.698;10.078;2024-01-11T10:14:12;102811.88;;;2.60;82.46
15487;BME280;7845;53.698;10.078;2024-01-11T10:16:37;102821.34;;;2.67;82.15
15487;BME280;7845;53.698;10.078;2024-01-11T10:19:02;102823.91;;;2.72;82.02
15487;BME280;7845;53.698;10.078;2024-01-11T10:21:29;102831.66;;;2.78;81.66
15487;BME280;7845;53.698;10.078;2024-01-11T10:23:57;102826.44;;;2.81;81.95
15487;BME280;7845;53.698;10.078;2024-01-11T10:26:30;102835.97;;;2.82;81.87
15487;BME280;7845;53.698;10.078;2024-01-11T10:29:01;102843.66;;;2.91;81.65
15487;BME280;7845;53.698;10.078;2024-01-11T10:31:30;102850.59;;;2.89;81.97
15487;BME280;7845;53.698;10.078;2024-01-11T10:33:55;102849.75;;;2.84;82.01
15487;BME280;7845;53.698;10.078;2024-01-11T10:36:22;102859.31;;;2.79;82.75
15487;BME280;7845;53.698;10.078;2024-01-11T10:38:49;102875.75;;;2.79;82.53
15487;BME280;7845;53.698;10.078;2024-01-11T10:41:18;102877.47;;;2.82;82.47
15487;BME280;7845;53.698;10.078;2024-01-11T10:43:43;102893.91;;;2.79;82.41
15487;BME280;7845;53.698;10.078;2024-01-11T10:46:11;102893.91;;;2.75;82.31
15487;BME280;7845;53.698;10.078;2024-01-11T10:48:38;102899.09;;;2.76;82.86
15487;BME280;7845;53.698;10.078;2024-01-11T10:51:08;102894.75;;;2.83;82.62
15487;BME280;7845;53.698;10.078;2024-01-11T10:53:43;102895.63;;;2.79;82.69
15487;BME280;7845;53.698;10.078;2024-01-11T10:56:12;102895.63;;;2.79;83.57
15487;BME280;7845;53.698;10.078;2024-01-11T10:58:42;102868.03;;;2.64;83.06
15487;BME280;7845;53.698;10.078;2024-01-11T11:01:08;102894.75;;;2.78;83.36
15487;BME280;7845;53.698;10.078;2024-01-11T11:03:35;102888.69;;;2.81;83.36
15487;BME280;7845;53.698;10.078;2024-01-11T11:06:01;102890.41;;;2.86;83.21
15487;BME280;7845;53.698;10.078;2024-01-11T11:08:28;102877.38;;;2.94;83.22
15487;BME280;7845;53.698;10.078;2024-01-11T11:10:58;102869.56;;;2.98;82.89
15487;BME280;7845;53.698;10.078;2024-01-11T11:13:25;102847.09;;;3.00;82.55
15487;BME280;7845;53.698;10.078;2024-01-11T11:15:52;102853.09;;;3.07;82.57
15487;BME280;7845;53.698;10.078;2024-01-11T11:18:18;102831.47;;;3.02;82.53
15487;BME280;7845;53.698;10.078;2024-01-11T11:20:44;102847.88;;;3.10;82.66
15487;BME280;7845;53.698;10.078;2024-01-11T11:23:11;102853.03;;;3.13;82.66
15487;BME280;7845;53.698;10.078;2024-01-11T11:25:41;102851.31;;;3.08;82.83
15487;BME280;7845;53.698;10.078;2024-01-11T11:28:07;102848.72;;;3.09;82.99
15487;BME280;7845;53.698;10.078;2024-01-11T11:30:37;102847.84;;;3.13;82.58
15487;BME280;7845;53.698;10.078;2024-01-11T11:33:09;102841.78;;;3.13;83.03
15487;BME280;7845;53.698;10.078;2024-01-11T11:35:37;102839.19;;;3.14;83.03
15487;BME280;7845;53.698;10.078;2024-01-11T11:38:03;102844.38;;;3.13;83.05
15487;BME280;7845;53.698;10.078;2024-01-11T11:40:36;102845.22;;;3.16;83.02
15487;BME280;7845;53.698;10.078;2024-01-11T11:43:06;102863.38;;;3.16;83.22
15487;BME280;7845;53.698;10.078;2024-01-11T11:45:32;102870.31;;;3.11;83.67
15487;BME280;7845;53.698;10.078;2024-01-11T11:47:57;102854.84;;;3.02;83.86
15487;BME280;7845;53.698;10.078;2024-01-11T11:50:23;102825.38;;;3.08;83.60
15487;BME280;7845;53.698;10.078;2024-01-11T11:52:54;102831.34;;;3.19;83.55
15487;BME280;7845;53.698;10.078;2024-01-11T11:55:22;102818.28;;;3.29;83.21
15487;BME280;7845;53.698;10.078;2024-01-11T11:57:48;102822.56;;;3.33;82.95
15487;BME280;7845;53.698;10.078;2024-01-11T12:00:15;102828.66;;;3.31;83.15
15487;BME280;7845;53.698;10.078;2024-01-11T12:02:41;102813.09;;;3.29;82.83
15487;BME280;7845;53.698;10.078;2024-01-11T12:05:07;102815.66;;;3.34;82.67
15487;BME280;7845;53.698;10.078;2024-01-11T12:07:32;102811.25;;;3.40;83.12
15487;BME280;7845;53.698;10.078;2024-01-11T12:09:59;102809.50;;;3.44;82.77
15487;BME280;7845;53.698;10.078;2024-01-11T12:12:25;102737.97;;;3.11;82.57
15487;BME280;7845;53.698;10.078;2024-01-11T12:14:50;102796.38;;;3.59;82.67
15487;BME280;7845;53.698;10.078;2024-01-11T12:17:16;102787.69;;;3.63;82.49
15487;BME280;7845;53.698;10.078;2024-01-11T12:19:42;102780.59;;;3.76;82.77
15487;BME280;7845;53.698;10.078;2024-01-11T12:22:08;102787.38;;;3.89;82.45
15487;BME280;7845;53.698;10.078;2024-01-11T12:24:33;102776.06;;;3.91;81.84
15487;BME280;7845;53.698;10.078;2024-01-11T12:26:59;102774.25;;;3.99;81.70
15487;BME280;7845;53.698;10.078;2024-01-11T12:29:32;102779.50;;;3.98;81.52
15487;BME280;7845;53.698;10.078;2024-01-11T12:31:58;102783.75;;;4.02;81.88
15487;BME280;7845;53.698;10.078;2024-01-11T12:34:27;102797.69;;;3.95;81.89
15487;BME280;7845;53.698;10.078;2024-01-11T12:36:53;102785.72;;;3.83;81.99
15487;BME280;7845;53.698;10.078;2024-01-11T12:39:20;102784.03;;;3.78;82.03
15487;BME280;7845;53.698;10.078;2024-01-11T12:41:49;102791.00;;;3.76;82.32
15487;BME280;7845;53.698;10.078;2024-01-11T12:44:14;102792.69;;;3.80;82.34
15487;BME280;7845;53.698;10.078;2024-01-11T12:46:40;102789.19;;;3.82;82.72
15487;BME280;7845;53.698;10.078;2024-01-11T12:49:09;102790.88;;;3.85;82.86
15487;BME280;7845;53.698;10.078;2024-01-11T12:51:36;102791.88;;;3.75;82.91